sensor_id;sensor_type;location;lat;lon;timestamp;pressure;altitude;pressure_sealevel;temperature;humidity
51524;BME280;37610;51.790;21.590;2022-10-16T00:02:54;100270.79;;;13.37;73.90
51524;BME280;37610;51.790;21.590;2022-10-16T00:06:56;100275.57;;;13.36;73.93
51524;BME280;37610;51.790;21.590;2022-10-16T00:11:08;100277.62;;;13.35;73.99
51524;BME280;37610;51.790;21.590;2022-10-16T00:15:10;100282.27;;;13.35;74.07
51524;BME280;37610;51.790;21.590;2022-10-16T00:19:11;100283.29;;;13.35;74.02
51524;BME280;37610;51.790;21.590;2022-10-16T00:23:13;100278.51;;;13.34;73.99
51524;BME280;37610;51.790;21.590;2022-10-16T00:27:15;100280.98;;;13.33;74.10
51524;BME280;37610;51.790;21.590;2022-10-16T00:31:18;100283.30;;;13.31;74.15
51524;BME280;37610;51.790;21.590;2022-10-16T00:35:20;100288.73;;;13.30;74.16
51524;BME280;37610;51.790;21.590;2022-10-16T00:39:21;100293.20;;;13.31;74.21
51524;BME280;37610;51.790;21.590;2022-10-16T00:47:39;100282.52;;;13.28;74.29
51524;BME280;37610;51.790;21.590;2022-10-16T00:51:47;100281.97;;;13.27;74.32
51524;BME280;37610;51.790;21.590;2022-10-16T00:55:51;100273.23;;;13.28;74.34
51524;BME280;37610;51.790;21.590;2022-10-16T00:59:53;100272.79;;;13.27;74.38
51524;BME280;37610;51.790;21.590;2022-10-16T01:03:54;100275.15;;;13.28;74.38
51524;BME280;37610;51.790;21.590;2022-10-16T01:08:13;100280.79;;;13.27;74.29
51524;BME280;37610;51.790;21.590;2022-10-16T01:12:23;100288.50;;;13.26;74.40
51524;BME280;37610;51.790;21.590;2022-10-16T01:17:22;100287.68;;;13.27;74.32
51524;BME280;37610;51.790;21.590;2022-10-16T01:21:26;100293.52;;;13.25;74.43
51524;BME280;37610;51.790;21.590;2022-10-16T01:29:54;100286.74;;;13.22;74.41
51524;BME280;37610;51.790;21.590;2022-10-16T01:34:05;100288.16;;;13.21;74.41
51524;BME280;37610;51.790;21.590;2022-10-16T01:38:33;100284.58;;;13.20;74.43
51524;BME280;37610;51.790;21.590;2022-10-16T01:42:43;100281.02;;;13.20;74.43
51524;BME280;37610;51.790;21.590;2022-10-16T01:46:50;100285.75;;;13.21;74.46
51524;BME280;37610;51.790;21.590;2022-10-16T01:51:13;100289.36;;;13.23;74.46
51524;BME280;37610;51.790;21.590;2022-10-16T01:55:21;100289.56;;;13.23;74.46
51524;BME280;37610;51.790;21.590;2022-10-16T01:59:25;100299.20;;;13.25;74.48
51524;BME280;37610;51.790;21.590;2022-10-16T02:03:29;100302.58;;;13.26;74.41
51524;BME280;37610;51.790;21.590;2022-10-16T02:07:31;100312.02;;;13.28;74.47
51524;BME280;37610;51.790;21.590;2022-10-16T02:11:32;100311.44;;;13.29;74.45
51524;BME280;37610;51.790;21.590;2022-10-16T02:15:34;100309.29;;;13.29;74.43
51524;BME280;37610;51.790;21.590;2022-10-16T02:19:36;100310.21;;;13.30;74.39
51524;BME280;37610;51.790;21.590;2022-10-16T02:23:49;100313.52;;;13.29;74.29
51524;BME280;37610;51.790;21.590;2022-10-16T02:28:24;100315.80;;;13.27;74.34
51524;BME280;37610;51.790;21.590;2022-10-16T02:32:31;100319.84;;;13.26;74.41
51524;BME280;37610;51.790;21.590;2022-10-16T02:36:35;100320.27;;;13.24;74.43
51524;BME280;37610;51.790;21.590;2022-10-16T02:40:37;100321.13;;;13.23;74.42
51524;BME280;37610;51.790;21.590;2022-10-16T02:44:39;100320.00;;;13.22;74.46
51524;BME280;37610;51.790;21.590;2022-10-16T02:48:40;100317.57;;;13.21;74.60
51524;BME280;37610;51.790;21.590;2022-10-16T02:52:42;100309.84;;;13.19;74.59
51524;BME280;37610;51.790;21.590;2022-10-16T02:56:43;100302.59;;;13.18;74.82
51524;BME280;37610;51.790;21.590;2022-10-16T03:00:45;100301.08;;;13.19;74.94
51524;BME280;37610;51.790;21.590;2022-10-16T03:04:47;100302.82;;;13.20;75.09
51524;BME280;37610;51.790;21.590;2022-10-16T03:08:48;100309.33;;;13.21;75.07
51524;BME280;37610;51.790;21.590;2022-10-16T03:12:49;100310.41;;;13.22;75.21
51524;BME280;37610;51.790;21.590;2022-10-16T03:16:51;100317.02;;;13.22;75.16
51524;BME280;37610;51.790;21.590;2022-10-16T03:20:53;100318.98;;;13.22;75.18
51524;BME280;37610;51.790;21.590;2022-10-16T03:24:54;100312.42;;;13.21;75.36
51524;BME280;37610;51.790;21.590;2022-10-16T03:28:55;100319.73;;;13.20;75.35
51524;BME280;37610;51.790;21.590;2022-10-16T03:32:57;100328.78;;;13.21;75.43
51524;BME280;37610;51.790;21.590;2022-10-16T03:36:58;100336.88;;;13.24;75.44
51524;BME280;37610;51.790;21.590;2022-10-16T03:40:59;100339.62;;;13.26;75.48
51524;BME280;37610;51.790;21.590;2022-10-16T03:45:01;100342.27;;;13.27;75.58
51524;BME280;37610;51.790;21.590;2022-10-16T03:49:03;100354.46;;;13.27;75.56
51524;BME280;37610;51.790;21.590;2022-10-16T03:53:05;100360.90;;;13.28;75.56
51524;BME280;37610;51.790;21.590;2022-10-16T03:57:06;100359.50;;;13.29;75.65
51524;BME280;37610;51.790;21.590;2022-10-16T04:01:08;100357.53;;;13.27;75.61
51524;BME280;37610;51.790;21.590;2022-10-16T04:05:11;100360.67;;;13.23;75.57
51524;BME280;37610;51.790;21.590;2022-10-16T04:09:12;100357.07;;;13.24;75.71
51524;BME280;37610;51.790;21.590;2022-10-16T04:13:14;100356.45;;;13.24;75.68
51524;BME280;37610;51.790;21.590;2022-10-16T04:17:15;100357.79;;;13.25;75.61
51524;BME280;37610;51.790;21.590;2022-10-16T04:21:17;100361.20;;;13.23;75.60
51524;BME280;37610;51.790;21.590;2022-10-16T04:25:18;100367.77;;;13.23;75.52
51524;BME280;37610;51.790;21.590;2022-10-16T04:29:20;100370.83;;;13.22;75.54
51524;BME280;37610;51.790;21.590;2022-10-16T04:33:21;100366.55;;;13.22;75.53
51524;BME280;37610;51.790;21.590;2022-10-16T04:37:24;100365.15;;;13.19;75.57
51524;BME280;37610;51.790;21.590;2022-10-16T04:41:26;100370.42;;;13.18;75.55
51524;BME280;37610;51.790;21.590;2022-10-16T04:45:28;100370.73;;;13.16;75.59
51524;BME280;37610;51.790;21.590;2022-10-16T04:49:29;100370.65;;;13.15;75.68
51524;BME280;37610;51.790;21.590;2022-10-16T04:53:31;100379.23;;;13.15;75.60
51524;BME280;37610;51.790;21.590;2022-10-16T04:57:32;100383.89;;;13.14;75.71
51524;BME280;37610;51.790;21.590;2022-10-16T05:01:34;100386.31;;;13.16;75.76
51524;BME280;37610;51.790;21.590;2022-10-16T05:05:36;100385.98;;;13.13;75.60
51524;BME280;37610;51.790;21.590;2022-10-16T05:09:38;100385.73;;;13.13;75.73
51524;BME280;37610;51.790;21.590;2022-10-16T05:13:39;100392.16;;;13.10;75.52
51524;BME280;37610;51.790;21.590;2022-10-16T05:17:40;100396.74;;;13.10;75.62
51524;BME280;37610;51.790;21.590;2022-10-16T05:21:42;100405.06;;;13.09;75.63
51524;BME280;37610;51.790;21.590;2022-10-16T05:25:52;100413.10;;;13.09;75.67
51524;BME280;37610;51.790;21.590;2022-10-16T05:29:53;100412.68;;;13.08;75.64
51524;BME280;37610;51.790;21.590;2022-10-16T05:34:00;100415.90;;;13.08;75.67
51524;BME280;37610;51.790;21.590;2022-10-16T05:38:02;100411.75;;;13.07;75.63
51524;BME280;37610;51.790;21.590;2022-10-16T05:42:04;100413.05;;;13.06;75.60
51524;BME280;37610;51.790;21.590;2022-10-16T05:46:06;100414.73;;;13.06;75.69
51524;BME280;37610;51.790;21.590;2022-10-16T05:50:08;100416.86;;;13.05;75.58
51524;BME280;37610;51.790;21.590;2022-10-16T05:54:09;100422.68;;;13.05;75.64
51524;BME280;37610;51.790;21.590;2022-10-16T05:58:11;100434.06;;;13.06;75.68
51524;BME280;37610;51.790;21.590;2022-10-16T06:02:13;100434.27;;;13.08;75.71
51524;BME280;37610;51.790;21.590;2022-10-16T06:06:17;100431.73;;;13.11;75.65
51524;BME280;37610;51.790;21.590;2022-10-16T06:10:19;100439.59;;;13.15;75.67
51524;BME280;37610;51.790;21.590;2022-10-16T06:14:20;100439.93;;;13.19;75.59
51524;BME280;37610;51.790;21.590;2022-10-16T06:18:21;100444.71;;;13.21;75.54
51524;BME280;37610;51.790;21.590;2022-10-16T06:22:23;100450.10;;;13.24;75.45
51524;BME280;37610;51.790;21.590;2022-10-16T06:26:26;100457.91;;;13.24;75.35
51524;BME280;37610;51.790;21.590;2022-10-16T06:30:28;100455.68;;;13.23;75.20
51524;BME280;37610;51.790;21.590;2022-10-16T06:34:30;100455.08;;;13.22;75.29
51524;BME280;37610;51.790;21.590;2022-10-16T06:38:32;100455.45;;;13.21;75.12
51524;BME280;37610;51.790;21.590;2022-10-16T06:42:33;100458.65;;;13.19;75.23
51524;BME280;37610;51.790;21.590;2022-10-16T06:46:35;100470.55;;;13.20;75.13
51524;BME280;37610;51.790;21.590;2022-10-16T06:50:36;100472.81;;;13.23;75.32
51524;BME280;37610;51.790;21.590;2022-10-16T06:54:38;100481.71;;;13.22;75.08
51524;BME280;37610;51.790;21.590;2022-10-16T06:58:40;100472.53;;;13.22;75.05
51524;BME280;37610;51.790;21.590;2022-10-16T07:02:41;100475.64;;;13.23;75.06
51524;BME280;37610;51.790;21.590;2022-10-16T07:06:43;100474.18;;;13.26;75.18
51524;BME280;37610;51.790;21.590;2022-10-16T07:10:44;100460.63;;;13.32;75.17
51524;BME280;37610;51.790;21.590;2022-10-16T07:14:46;100479.50;;;13.38;75.17
51524;BME280;37610;51.790;21.590;2022-10-16T07:18:47;100492.65;;;13.45;75.09
51524;BME280;37610;51.790;21.590;2022-10-16T07:22:50;100486.85;;;13.53;75.10
51524;BME280;37610;51.790;21.590;2022-10-16T07:26:52;100491.88;;;13.63;74.76
51524;BME280;37610;51.790;21.590;2022-10-16T07:30:53;100494.70;;;13.70;74.58
51524;BME280;37610;51.790;21.590;2022-10-16T07:34:55;100491.77;;;13.76;74.40
51524;BME280;37610;51.790;21.590;2022-10-16T07:38:56;100488.73;;;13.82;74.25
51524;BME280;37610;51.790;21.590;2022-10-16T07:42:58;100498.58;;;13.84;74.10
51524;BME280;37610;51.790;21.590;2022-10-16T07:46:59;100508.82;;;13.90;74.29
51524;BME280;37610;51.790;21.590;2022-10-16T07:51:04;100523.30;;;13.96;74.28
51524;BME280;37610;51.790;21.590;2022-10-16T07:55:06;100527.89;;;14.04;74.32
51524;BME280;37610;51.790;21.590;2022-10-16T07:59:07;100526.69;;;14.14;74.23
51524;BME280;37610;51.790;21.590;2022-10-16T08:03:08;100522.95;;;14.25;74.33
51524;BME280;37610;51.790;21.590;2022-10-16T08:07:10;100526.04;;;14.35;74.13
51524;BME280;37610;51.790;21.590;2022-10-16T08:11:11;100527.10;;;14.45;73.93
51524;BME280;37610;51.790;21.590;2022-10-16T08:15:13;100518.92;;;14.55;73.87
51524;BME280;37610;51.790;21.590;2022-10-16T08:19:14;100522.56;;;14.66;73.73
51524;BME280;37610;51.790;21.590;2022-10-16T08:23:16;100527.84;;;14.78;73.46
51524;BME280;37610;51.790;21.590;2022-10-16T08:27:18;100529.64;;;14.92;73.44
51524;BME280;37610;51.790;21.590;2022-10-16T08:31:20;100531.40;;;15.03;73.21
51524;BME280;37610;51.790;21.590;2022-10-16T08:35:21;100530.79;;;15.11;72.60
51524;BME280;37610;51.790;21.590;2022-10-16T08:39:23;100522.88;;;15.15;72.43
51524;BME280;37610;51.790;21.590;2022-10-16T08:43:27;100516.35;;;15.18;72.58
51524;BME280;37610;51.790;21.590;2022-10-16T08:48:18;100518.66;;;15.21;72.31
51524;BME280;37610;51.790;21.590;2022-10-16T08:52:22;100522.89;;;15.26;72.36
51524;BME280;37610;51.790;21.590;2022-10-16T08:56:25;100520.38;;;15.32;72.35
51524;BME280;37610;51.790;21.590;2022-10-16T09:00:27;100526.98;;;15.39;72.13
51524;BME280;37610;51.790;21.590;2022-10-16T09:04:43;100531.30;;;15.48;71.80
51524;BME280;37610;51.790;21.590;2022-10-16T09:09:02;100526.16;;;15.60;71.78
51524;BME280;37610;51.790;21.590;2022-10-16T09:22:16;100508.77;;;16.05;71.55
51524;BME280;37610;51.790;21.590;2022-10-16T09:26:18;100514.19;;;16.18;71.39
51524;BME280;37610;51.790;21.590;2022-10-16T09:30:27;100523.75;;;16.28;69.61
51524;BME280;37610;51.790;21.590;2022-10-16T09:34:34;100527.08;;;16.35;70.09
51524;BME280;37610;51.790;21.590;2022-10-16T09:38:37;100531.62;;;16.42;69.90
51524;BME280;37610;51.790;21.590;2022-10-16T09:42:39;100537.81;;;16.48;69.56
51524;BME280;37610;51.790;21.590;2022-10-16T09:46:40;100541.88;;;16.51;69.63
51524;BME280;37610;51.790;21.590;2022-10-16T09:50:42;100546.75;;;16.54;69.38
51524;BME280;37610;51.790;21.590;2022-10-16T09:55:02;100546.17;;;16.57;69.35
51524;BME280;37610;51.790;21.590;2022-10-16T10:03:12;100547.14;;;16.68;68.27
51524;BME280;37610;51.790;21.590;2022-10-16T10:07:27;100535.49;;;16.73;68.00
51524;BME280;37610;51.790;21.590;2022-10-16T10:11:53;100536.14;;;16.75;67.90
51524;BME280;37610;51.790;21.590;2022-10-16T10:15:55;100533.33;;;16.78;68.02
51524;BME280;37610;51.790;21.590;2022-10-16T10:20:00;100528.65;;;16.78;67.47
51524;BME280;37610;51.790;21.590;2022-10-16T10:24:14;100527.84;;;16.77;67.70
51524;BME280;37610;51.790;21.590;2022-10-16T10:32:46;100520.11;;;16.80;67.62
51524;BME280;37610;51.790;21.590;2022-10-16T10:36:58;100514.98;;;16.82;67.53
51524;BME280;37610;51.790;21.590;2022-10-16T10:45:35;100525.13;;;16.93;67.62
51524;BME280;37610;51.790;21.590;2022-10-16T11:02:15;100517.94;;;17.21;67.35
51524;BME280;37610;51.790;21.590;2022-10-16T11:06:23;100505.09;;;17.30;67.25
51524;BME280;37610;51.790;21.590;2022-10-16T11:10:33;100501.63;;;17.40;66.26
51524;BME280;37610;51.790;21.590;2022-10-16T11:14:56;100496.44;;;17.47;66.78
51524;BME280;37610;51.790;21.590;2022-10-16T11:23:28;100484.11;;;17.60;66.10
51524;BME280;37610;51.790;21.590;2022-10-16T11:27:37;100485.89;;;17.68;66.08
51524;BME280;37610;51.790;21.590;2022-10-16T11:31:44;100487.02;;;17.76;65.83
51524;BME280;37610;51.790;21.590;2022-10-16T11:39:59;100494.13;;;17.89;66.33
51524;BME280;37610;51.790;21.590;2022-10-16T11:48:54;100488.59;;;18.05;65.45
51524;BME280;37610;51.790;21.590;2022-10-16T11:57:31;100491.30;;;18.08;64.87
51524;BME280;37610;51.790;21.590;2022-10-16T12:01:45;100491.34;;;18.10;64.84
51524;BME280;37610;51.790;21.590;2022-10-16T12:10:20;100500.48;;;18.23;64.72
51524;BME280;37610;51.790;21.590;2022-10-16T12:14:37;100498.70;;;18.31;65.13
51524;BME280;37610;51.790;21.590;2022-10-16T12:18:40;100501.02;;;18.37;64.96
51524;BME280;37610;51.790;21.590;2022-10-16T12:22:58;100507.80;;;18.42;64.52
51524;BME280;37610;51.790;21.590;2022-10-16T12:27:01;100508.64;;;18.45;64.15
51524;BME280;37610;51.790;21.590;2022-10-16T12:31:03;100507.14;;;18.44;64.12
51524;BME280;37610;51.790;21.590;2022-10-16T12:35:18;100504.20;;;18.40;63.84
51524;BME280;37610;51.790;21.590;2022-10-16T12:39:23;100493.17;;;18.35;63.98
51524;BME280;37610;51.790;21.590;2022-10-16T12:43:35;100491.93;;;18.29;64.04
51524;BME280;37610;51.790;21.590;2022-10-16T12:47:47;100493.23;;;18.26;64.09
51524;BME280;37610;51.790;21.590;2022-10-16T12:51:50;100498.37;;;18.25;64.18
51524;BME280;37610;51.790;21.590;2022-10-16T12:56:08;100495.96;;;18.25;64.09
51524;BME280;37610;51.790;21.590;2022-10-16T13:18:10;100512.67;;;18.16;64.34
51524;BME280;37610;51.790;21.590;2022-10-16T13:30:33;100501.48;;;18.36;64.86
51524;BME280;37610;51.790;21.590;2022-10-16T13:34:44;100503.25;;;18.47;64.48
51524;BME280;37610;51.790;21.590;2022-10-16T13:38:46;100506.09;;;18.54;64.26
51524;BME280;37610;51.790;21.590;2022-10-16T13:42:48;100497.89;;;18.63;64.29
51524;BME280;37610;51.790;21.590;2022-10-16T13:47:00;100502.12;;;18.68;64.06
51524;BME280;37610;51.790;21.590;2022-10-16T13:51:14;100511.06;;;18.65;63.81
51524;BME280;37610;51.790;21.590;2022-10-16T13:55:17;100519.76;;;18.57;63.89
51524;BME280;37610;51.790;21.590;2022-10-16T13:59:25;100527.73;;;18.49;63.90
51524;BME280;37610;51.790;21.590;2022-10-16T14:03:28;100531.64;;;18.37;63.85
51524;BME280;37610;51.790;21.590;2022-10-16T14:07:32;100539.15;;;18.25;64.04
51524;BME280;37610;51.790;21.590;2022-10-16T14:11:44;100545.42;;;18.14;64.12
51524;BME280;37610;51.790;21.590;2022-10-16T14:15:49;100543.30;;;18.03;64.30
51524;BME280;37610;51.790;21.590;2022-10-16T14:19:55;100548.49;;;17.95;64.48
51524;BME280;37610;51.790;21.590;2022-10-16T14:23:57;100550.98;;;17.86;64.71
51524;BME280;37610;51.790;21.590;2022-10-16T14:28:21;100549.19;;;17.80;64.89
51524;BME280;37610;51.790;21.590;2022-10-16T14:32:23;100548.21;;;17.71;65.18
51524;BME280;37610;51.790;21.590;2022-10-16T14:36:27;100553.98;;;17.65;65.36
51524;BME280;37610;51.790;21.590;2022-10-16T14:40:35;100552.25;;;17.60;65.60
51524;BME280;37610;51.790;21.590;2022-10-16T14:44:39;100549.55;;;17.55;65.88
51524;BME280;37610;51.790;21.590;2022-10-16T14:48:51;100553.96;;;17.51;66.03
51524;BME280;37610;51.790;21.590;2022-10-16T14:52:55;100551.44;;;17.47;66.22
51524;BME280;37610;51.790;21.590;2022-10-16T14:56:58;100551.58;;;17.42;66.27
51524;BME280;37610;51.790;21.590;2022-10-16T15:00:59;100554.22;;;17.37;66.47
51524;BME280;37610;51.790;21.590;2022-10-16T15:05:27;100557.16;;;17.31;66.69
51524;BME280;37610;51.790;21.590;2022-10-16T15:09:27;100561.02;;;17.25;66.84
51524;BME280;37610;51.790;21.590;2022-10-16T15:13:28;100567.42;;;17.19;66.95
51524;BME280;37610;51.790;21.590;2022-10-16T15:17:30;100574.83;;;17.14;67.02
51524;BME280;37610;51.790;21.590;2022-10-16T15:21:32;100576.23;;;17.10;67.17
51524;BME280;37610;51.790;21.590;2022-10-16T15:25:39;100573.44;;;17.06;67.38
51524;BME280;37610;51.790;21.590;2022-10-16T15:29:42;100574.63;;;17.03;67.44
51524;BME280;37610;51.790;21.590;2022-10-16T15:33:44;100573.70;;;17.00;67.55
51524;BME280;37610;51.790;21.590;2022-10-16T15:37:49;100572.54;;;16.97;67.72
51524;BME280;37610;51.790;21.590;2022-10-16T15:41:50;100566.49;;;16.94;67.81
51524;BME280;37610;51.790;21.590;2022-10-16T15:46:05;100571.94;;;16.91;67.84
51524;BME280;37610;51.790;21.590;2022-10-16T15:50:12;100572.88;;;16.87;68.03
51524;BME280;37610;51.790;21.590;2022-10-16T15:54:14;100582.92;;;16.84;68.04
51524;BME280;37610;51.790;21.590;2022-10-16T15:58:16;100584.32;;;16.82;68.13
51524;BME280;37610;51.790;21.590;2022-10-16T16:02:18;100594.14;;;16.80;68.23
51524;BME280;37610;51.790;21.590;2022-10-16T16:06:19;100606.45;;;16.76;68.23
51524;BME280;37610;51.790;21.590;2022-10-16T16:10:21;100614.11;;;16.72;68.39
51524;BME280;37610;51.790;21.590;2022-10-16T16:14:22;100610.58;;;16.69;68.45
51524;BME280;37610;51.790;21.590;2022-10-16T16:18:26;100614.13;;;16.65;68.62
51524;BME280;37610;51.790;21.590;2022-10-16T16:22:27;100620.45;;;16.62;68.74
51524;BME280;37610;51.790;21.590;2022-10-16T16:26:30;100624.55;;;16.59;68.71
51524;BME280;37610;51.790;21.590;2022-10-16T16:30:37;100624.73;;;16.55;68.95
51524;BME280;37610;51.790;21.590;2022-10-16T16:34:38;100635.34;;;16.54;69.01
51524;BME280;37610;51.790;21.590;2022-10-16T16:38:39;100637.58;;;16.51;69.16
51524;BME280;37610;51.790;21.590;2022-10-16T16:42:41;100641.11;;;16.49;69.24
51524;BME280;37610;51.790;21.590;2022-10-16T16:46:43;100641.13;;;16.47;69.32
51524;BME280;37610;51.790;21.590;2022-10-16T16:50:45;100640.88;;;16.45;69.47
51524;BME280;37610;51.790;21.590;2022-10-16T16:54:47;100642.36;;;16.43;69.64
51524;BME280;37610;51.790;21.590;2022-10-16T16:58:54;100649.39;;;16.40;69.70
51524;BME280;37610;51.790;21.590;2022-10-16T17:02:57;100651.36;;;16.40;69.62
51524;BME280;37610;51.790;21.590;2022-10-16T17:06:58;100657.69;;;16.39;69.83
51524;BME280;37610;51.790;21.590;2022-10-16T17:10:59;100661.16;;;16.37;69.91
51524;BME280;37610;51.790;21.590;2022-10-16T17:15:01;100660.38;;;16.35;69.90
51524;BME280;37610;51.790;21.590;2022-10-16T17:19:05;100668.61;;;16.34;69.90
51524;BME280;37610;51.790;21.590;2022-10-16T17:23:08;100671.61;;;16.34;69.96
51524;BME280;37610;51.790;21.590;2022-10-16T17:27:09;100671.08;;;16.34;69.94
51524;BME280;37610;51.790;21.590;2022-10-16T17:31:18;100680.01;;;16.33;69.94
51524;BME280;37610;51.790;21.590;2022-10-16T17:35:21;100684.41;;;16.32;69.98
51524;BME280;37610;51.790;21.590;2022-10-16T17:39:22;100683.64;;;16.29;70.03
51524;BME280;37610;51.790;21.590;2022-10-16T17:43:23;100685.58;;;16.27;70.07
51524;BME280;37610;51.790;21.590;2022-10-16T17:47:26;100688.94;;;16.25;70.02
51524;BME280;37610;51.790;21.590;2022-10-16T17:51:29;100686.85;;;16.23;70.04
51524;BME280;37610;51.790;21.590;2022-10-16T17:55:37;100691.68;;;16.20;70.05
51524;BME280;37610;51.790;21.590;2022-10-16T17:59:38;100694.86;;;16.17;70.05
51524;BME280;37610;51.790;21.590;2022-10-16T18:03:40;100699.59;;;16.14;70.16
51524;BME280;37610;51.790;21.590;2022-10-16T18:07:42;100696.33;;;16.11;70.18
51524;BME280;37610;51.790;21.590;2022-10-16T18:11:44;100706.94;;;16.08;70.16
51524;BME280;37610;51.790;21.590;2022-10-16T18:15:45;100712.53;;;16.07;70.20
51524;BME280;37610;51.790;21.590;2022-10-16T18:19:47;100724.48;;;16.04;70.19
51524;BME280;37610;51.790;21.590;2022-10-16T18:23:48;100730.90;;;16.02;70.28
51524;BME280;37610;51.790;21.590;2022-10-16T18:27:49;100738.33;;;15.98;70.42
51524;BME280;37610;51.790;21.590;2022-10-16T18:31:52;100746.19;;;15.97;70.37
51524;BME280;37610;51.790;21.590;2022-10-16T18:35:53;100748.42;;;15.95;70.41
51524;BME280;37610;51.790;21.590;2022-10-16T18:39:55;100754.39;;;15.93;70.48
51524;BME280;37610;51.790;21.590;2022-10-16T18:43:57;100753.85;;;15.91;70.54
51524;BME280;37610;51.790;21.590;2022-10-16T18:47:58;100758.48;;;15.88;70.58
51524;BME280;37610;51.790;21.590;2022-10-16T18:52:00;100762.83;;;15.85;70.70
51524;BME280;37610;51.790;21.590;2022-10-16T18:56:04;100767.77;;;15.83;70.74
51524;BME280;37610;51.790;21.590;2022-10-16T19:00:06;100773.77;;;15.82;70.81
51524;BME280;37610;51.790;21.590;2022-10-16T19:04:13;100769.05;;;15.80;70.78
51524;BME280;37610;51.790;21.590;2022-10-16T19:08:14;100774.75;;;15.77;70.89
51524;BME280;37610;51.790;21.590;2022-10-16T19:12:16;100775.92;;;15.75;70.93
51524;BME280;37610;51.790;21.590;2022-10-16T19:16:20;100785.96;;;15.72;70.95
51524;BME280;37610;51.790;21.590;2022-10-16T19:20:22;100789.92;;;15.67;70.99
51524;BME280;37610;51.790;21.590;2022-10-16T19:24:23;100792.23;;;15.63;71.13
51524;BME280;37610;51.790;21.590;2022-10-16T19:28:25;100798.38;;;15.57;71.08
51524;BME280;37610;51.790;21.590;2022-10-16T19:32:26;100802.54;;;15.47;71.17
51524;BME280;37610;51.790;21.590;2022-10-16T19:36:30;100807.05;;;15.38;71.20
51524;BME280;37610;51.790;21.590;2022-10-16T19:40:32;100814.05;;;15.29;71.37
51524;BME280;37610;51.790;21.590;2022-10-16T19:44:34;100821.07;;;15.20;71.52
51524;BME280;37610;51.790;21.590;2022-10-16T19:48:36;100822.17;;;15.09;71.74
51524;BME280;37610;51.790;21.590;2022-10-16T19:52:38;100817.79;;;15.02;71.86
51524;BME280;37610;51.790;21.590;2022-10-16T19:56:40;100822.98;;;14.97;72.00
51524;BME280;37610;51.790;21.590;2022-10-16T20:00:42;100827.23;;;14.90;72.15
51524;BME280;37610;51.790;21.590;2022-10-16T20:04:43;100823.71;;;14.82;72.30
51524;BME280;37610;51.790;21.590;2022-10-16T20:08:46;100834.05;;;14.78;72.43
51524;BME280;37610;51.790;21.590;2022-10-16T20:12:48;100841.83;;;14.69;72.46
51524;BME280;37610;51.790;21.590;2022-10-16T20:16:50;100839.64;;;14.62;72.64
51524;BME280;37610;51.790;21.590;2022-10-16T20:20:53;100841.08;;;14.62;72.97
51524;BME280;37610;51.790;21.590;2022-10-16T20:24:55;100847.52;;;14.60;73.01
51524;BME280;37610;51.790;21.590;2022-10-16T20:28:56;100848.17;;;14.53;73.15
51524;BME280;37610;51.790;21.590;2022-10-16T20:32:58;100849.04;;;14.43;73.07
51524;BME280;37610;51.790;21.590;2022-10-16T20:36:59;100848.88;;;14.38;73.27
51524;BME280;37610;51.790;21.590;2022-10-16T20:41:02;100856.17;;;14.31;73.50
51524;BME280;37610;51.790;21.590;2022-10-16T20:45:05;100856.10;;;14.23;73.53
51524;BME280;37610;51.790;21.590;2022-10-16T20:49:07;100863.67;;;14.22;73.68
51524;BME280;37610;51.790;21.590;2022-10-16T20:53:09;100859.58;;;14.22;73.92
51524;BME280;37610;51.790;21.590;2022-10-16T20:57:10;100864.05;;;14.25;74.18
51524;BME280;37610;51.790;21.590;2022-10-16T21:01:17;100867.33;;;14.33;74.33
51524;BME280;37610;51.790;21.590;2022-10-16T21:05:19;100883.55;;;14.20;73.93
51524;BME280;37610;51.790;21.590;2022-10-16T21:09:20;100888.52;;;14.13;74.19
51524;BME280;37610;51.790;21.590;2022-10-16T21:13:22;100896.89;;;14.17;74.37
51524;BME280;37610;51.790;21.590;2022-10-16T21:17:23;100899.39;;;14.23;74.73
51524;BME280;37610;51.790;21.590;2022-10-16T21:21:29;100901.02;;;14.30;74.81
51524;BME280;37610;51.790;21.590;2022-10-16T21:25:31;100906.85;;;14.37;74.79
51524;BME280;37610;51.790;21.590;2022-10-16T21:29:33;100907.21;;;14.43;74.75
51524;BME280;37610;51.790;21.590;2022-10-16T21:33:34;100902.34;;;14.49;74.68
51524;BME280;37610;51.790;21.590;2022-10-16T21:37:36;100902.92;;;14.54;74.66
51524;BME280;37610;51.790;21.590;2022-10-16T21:41:38;100912.54;;;14.53;74.37
51524;BME280;37610;51.790;21.590;2022-10-16T21:45:39;100921.89;;;14.42;74.07
51524;BME280;37610;51.790;21.590;2022-10-16T21:49:40;100927.05;;;14.29;74.07
51524;BME280;37610;51.790;21.590;2022-10-16T21:53:42;100927.54;;;14.21;74.41
51524;BME280;37610;51.790;21.590;2022-10-16T21:57:43;100928.02;;;14.18;74.51
51524;BME280;37610;51.790;21.590;2022-10-16T22:01:45;100926.69;;;14.15;75.03
51524;BME280;37610;51.790;21.590;2022-10-16T22:05:46;100929.77;;;14.12;74.69
51524;BME280;37610;51.790;21.590;2022-10-16T22:09:48;100932.15;;;14.01;74.26
51524;BME280;37610;51.790;21.590;2022-10-16T22:13:50;100938.59;;;13.96;74.29
51524;BME280;37610;51.790;21.590;2022-10-16T22:17:52;100943.59;;;13.90;74.35
51524;BME280;37610;51.790;21.590;2022-10-16T22:21:54;100934.02;;;13.86;74.72
51524;BME280;37610;51.790;21.590;2022-10-16T22:25:58;100932.38;;;13.84;75.12
51524;BME280;37610;51.790;21.590;2022-10-16T22:30:00;100935.42;;;13.80;74.68
51524;BME280;37610;51.790;21.590;2022-10-16T22:34:03;100938.05;;;13.76;74.53